Indianapolis, Indiana
Traffic Map
Current Weather Conditions
Indianapolis, Indiana
Scattered Clouds
Scattered Clouds
22°
Feels Like: 22°
Wind Chill: 22° Ceiling: Unl
Heat Index: 22° Visibility: 10mi
Dew Point: 18° Wind: 6mph
Humidity: 78% Direction: 200° (SSW)
Pressure: 30.09in Gusts: 0mph
Raw Report DataKIND 050454Z 20005KT 10SM FEW120 SCT230 22/18 A3009 RMK AO2 SLP180 T02170178 403440206
Traffic Incident Summary
Active as of:
Severity:
Category:
InformationThere was an issue retrieving the traffic information for this location. Please try a different location or try again shortly.
Advertisements
Track Severe Weather on mobile